Watertown, Illinois
Current Conditions -  °F | °C
As of 6:52 PM on Monday 22 Dec 2014 (Local Time) from KMLI Reporting Station
Haze Haze  
Wind Chill: 35°   Ceiling: 400
Heat Index: 40°   Visibility: 2mi
Dew Point: 39°   Wind: 7mph
Humidity: 97%   Direction: 90°E
Pressure: 29.55"   Gusts: NA
Location:  41.5228°N, 90.3951°W
Report Text: KMLI 230052Z 09006KT 2SM BR OVC004 04/04 A2955 RMK AO2 SLP010 T00440039
Loading
Personal Weather Stations






























Interactive Weather Map New forecast layout! Learn more

10-Day Weather Forecast

Advertisements
Track Severe Weather on mobile